Time;durP1;ratioP1;P1;durP2;ratioP2;P2;SDS_P1;SDS_P2;PMS_P1;PMS_P2;Temp;Humidity;BMP_temperature;BMP_pressure;BME280_temperature;BME280_humidity;BME280_pressure;Samples;Min_cycle;Max_cycle;Signal;HPM_P1;HPM_P2
2022/07/27 00:01:57;;;;;;;;;;;;;;;22.98;47.58;100117.94;5356074;32;34820;-77
2022/07/27 00:04:59;;;;;;;;;;;;;;;22.92;47.91;100125.72;5343379;32;34200;-77
2022/07/27 00:08:01;;;;;;;;;;;;;;;23.41;46.61;100119.19;5356772;32;34214;-77
2022/07/27 00:11:03;;;;;;;;;;;;;;;23.12;47.68;100134.53;5347257;32;34873;-77
2022/07/27 00:14:05;;;;;;;;;;;;;;;22.46;49.26;100130.00;5356022;32;35022;-76
2022/07/27 00:17:07;;;;;;;;;;;;;;;22.89;48.26;100126.88;5358053;32;34839;-79
2022/07/27 00:20:09;;;;;;;;;;;;;;;22.35;49.30;100127.50;5349351;32;35256;-78
2022/07/27 00:23:11;;;;;;;;;;;;;;;22.87;48.04;100125.34;5352141;32;35781;-77
2022/07/27 00:26:12;;;;;;;;;;;;;;;22.19;49.82;100132.56;5346926;32;35800;-76
2022/07/27 00:29:15;;;;;;;;;;;;;;;22.82;48.31;100130.25;5360927;32;34961;-76
2022/07/27 00:32:16;;;;;;;;;;;;;;;22.70;48.66;100132.25;5347972;32;34894;-76
2022/07/27 00:35:18;;;;;;;;;;;;;;;22.71;48.31;100132.09;5361911;32;43372;-77
2022/07/27 00:38:20;;;;;;;;;;;;;;;22.40;49.86;100127.91;5354632;32;34937;-77
2022/07/27 00:41:22;;;;;;;;;;;;;;;22.96;48.46;100127.12;5349017;32;35425;-77
2022/07/27 00:44:25;;;;;;;;;;;;;;;22.27;50.70;100130.00;5355922;32;34785;-75
2022/07/27 00:47:27;;;;;;;;;;;;;;;22.96;48.75;100129.81;5348027;32;34384;-76
2022/07/27 00:50:29;;;;;;;;;;;;;;;22.74;49.44;100130.12;5340444;32;35435;-77
2022/07/27 00:53:30;;;;;;;;;;;;;;;22.51;50.05;100135.78;5347055;32;35406;-76
2022/07/27 00:56:32;;;;;;;;;;;;;;;22.06;50.54;100141.69;5360452;32;34667;-76
2022/07/27 00:59:34;;;;;;;;;;;;;;;21.78;50.80;100129.97;5345869;32;34439;-77
2022/07/27 01:02:36;;;;;;;;;;;;;;;22.01;50.39;100130.53;5350071;32;35438;-77
2022/07/27 01:05:46;;;;;;;;;;;;;;;22.49;48.84;100140.44;5346591;32;34779;-76
2022/07/27 01:08:48;;;;;;;;;;;;;;;22.53;48.41;100133.81;5327882;32;43354;-77
2022/07/27 01:11:50;;;;;;;;;;;;;;;22.71;47.73;100118.69;5356293;32;34869;-76
2022/07/27 01:14:52;;;;;;;;;;;;;;;22.62;48.07;100127.59;5346261;32;34414;-77
2022/07/27 01:17:54;;;;;;;;;;;;;;;21.74;49.93;100133.88;5363274;32;34408;-77
2022/07/27 01:20:56;;;;;;;;;;;;;;;21.79;50.00;100125.44;5342380;32;34965;-77
2022/07/27 01:23:58;;;;;;;;;;;;;;;22.70;47.86;100125.03;5344261;32;34769;-77
2022/07/27 01:27:03;;;;;;;;;;;;;;;22.46;48.20;100121.97;5362797;32;34319;-77
2022/07/27 01:30:25;;;;;;;;;;;;;;;22.77;47.85;100135.19;5349282;32;34029;-77
2022/07/27 01:33:26;;;;;;;;;;;;;;;22.56;48.27;100138.87;5362927;32;45159;-77
2022/07/27 01:36:28;;;;;;;;;;;;;;;22.85;47.90;100137.97;5345538;32;34290;-76
2022/07/27 01:39:31;;;;;;;;;;;;;;;22.08;49.91;100139.69;5345323;32;34630;-75
2022/07/27 01:42:33;;;;;;;;;;;;;;;21.72;50.94;100132.34;5354062;32;35134;-77
2022/07/27 01:45:35;;;;;;;;;;;;;;;21.86;50.75;100139.97;5347547;32;35322;-77
2022/07/27 01:48:37;;;;;;;;;;;;;;;22.56;49.04;100138.87;5364679;32;35091;-77
2022/07/27 01:51:38;;;;;;;;;;;;;;;22.28;49.84;100137.06;5337886;32;36459;-77
2022/07/27 01:54:40;;;;;;;;;;;;;;;21.77;51.17;100138.13;5363666;32;35135;-76
2022/07/27 01:57:42;;;;;;;;;;;;;;;22.20;50.00;100135.09;5346746;32;35732;-76
2022/07/27 02:00:44;;;;;;;;;;;;;;;21.68;51.33;100126.41;5346933;32;35471;-77
2022/07/27 02:03:46;;;;;;;;;;;;;;;22.11;50.22;100126.09;5344819;32;35439;-77
2022/07/27 02:06:48;;;;;;;;;;;;;;;21.98;50.71;100121.97;5333078;32;44616;-76
2022/07/27 02:09:50;;;;;;;;;;;;;;;22.11;50.17;100127.91;5363324;32;35022;-76
2022/07/27 02:12:52;;;;;;;;;;;;;;;22.71;48.42;100123.22;5345673;32;35396;-77
2022/07/27 02:15:54;;;;;;;;;;;;;;;23.19;47.32;100127.63;5373456;32;35240;-77
2022/07/27 02:18:56;;;;;;;;;;;;;;;23.10;47.12;100132.00;5346351;32;35448;-77
2022/07/27 02:21:58;;;;;;;;;;;;;;;23.04;47.01;100124.56;5350523;32;34436;-77
2022/07/27 02:25:01;;;;;;;;;;;;;;;22.02;49.59;100134.06;5355998;32;34982;-77
2022/07/27 02:28:03;;;;;;;;;;;;;;;21.86;50.17;100132.78;5346426;32;34236;-77
2022/07/27 02:31:05;;;;;;;;;;;;;;;22.03;49.59;100131.25;5362110;32;34876;-76
2022/07/27 02:34:06;;;;;;;;;;;;;;;22.56;48.07;100144.25;5345014;32;35148;-76
2022/07/27 02:37:08;;;;;;;;;;;;;;;21.95;49.19;100136.44;5361771;32;34006;-76
2022/07/27 02:40:11;;;;;;;;;;;;;;;21.68;49.56;100128.25;5341987;32;36008;-77
2022/07/27 02:43:12;;;;;;;;;;;;;;;21.97;48.67;100131.81;5354993;32;34246;-76
2022/07/27 02:46:14;;;;;;;;;;;;;;;22.05;48.87;100140.00;5356485;32;34849;-77
2022/07/27 02:49:16;;;;;;;;;;;;;;;22.54;47.50;100140.00;5336031;32;36314;-78
2022/07/27 02:52:19;;;;;;;;;;;;;;;23.26;45.55;100135.94;5353030;32;44833;-77
2022/07/27 02:55:21;;;;;;;;;;;;;;;22.71;46.82;100144.63;5346803;32;34542;-77
2022/07/27 02:58:23;;;;;;;;;;;;;;;22.38;47.31;100146.78;5363379;32;34990;-76
2022/07/27 03:01:25;;;;;;;;;;;;;;;22.79;46.59;100146.59;5357109;32;34980;-78
2022/07/27 03:04:27;;;;;;;;;;;;;;;22.42;47.30;100148.22;5344054;32;35088;-76
2022/07/27 03:07:29;;;;;;;;;;;;;;;22.42;47.58;100142.00;5345826;32;35835;-76
2022/07/27 03:10:31;;;;;;;;;;;;;;;23.40;45.04;100152.37;5347225;32;34214;-76
2022/07/27 03:13:33;;;;;;;;;;;;;;;23.62;44.72;100153.00;5363323;32;35380;-77
2022/07/27 03:16:35;;;;;;;;;;;;;;;22.21;48.09;100157.34;5346735;32;34684;-77
2022/07/27 03:19:37;;;;;;;;;;;;;;;22.29;48.21;100152.16;5363022;32;34314;-77
2022/07/27 03:22:39;;;;;;;;;;;;;;;21.65;49.29;100152.59;5339466;32;34962;-77
2022/07/27 03:25:41;;;;;;;;;;;;;;;22.00;48.72;100149.41;5343443;32;35193;-77
2022/07/27 03:28:43;;;;;;;;;;;;;;;21.96;48.71;100148.00;5358226;32;36831;-78
2022/07/27 03:31:44;;;;;;;;;;;;;;;21.52;49.74;100140.31;5346656;32;34838;-77
2022/07/27 03:34:47;;;;;;;;;;;;;;;21.89;48.73;100135.16;5361492;32;46271;-78
2022/07/27 03:37:49;;;;;;;;;;;;;;;22.11;48.22;100147.50;5343644;32;34266;-77
2022/07/27 03:40:51;;;;;;;;;;;;;;;21.94;48.66;100142.78;5359338;32;34357;-77
2022/07/27 03:43:53;;;;;;;;;;;;;;;22.07;48.38;100154.06;5358236;32;35415;-77
2022/07/27 03:46:55;;;;;;;;;;;;;;;21.94;48.79;100150.81;5360804;32;34650;-77
2022/07/27 03:49:57;;;;;;;;;;;;;;;22.47;47.31;100149.59;5336883;32;35003;-76
2022/07/27 03:52:59;;;;;;;;;;;;;;;23.37;45.52;100149.97;5342695;32;34827;-78
2022/07/27 03:56:01;;;;;;;;;;;;;;;23.77;44.28;100152.34;5353496;32;35649;-76
2022/07/27 03:59:03;;;;;;;;;;;;;;;23.86;43.88;100153.28;5337523;32;35171;-77
2022/07/27 04:02:05;;;;;;;;;;;;;;;23.63;44.25;100150.16;5363552;32;34905;-76
2022/07/27 04:05:08;;;;;;;;;;;;;;;23.18;45.88;100150.03;5334396;32;35323;-77
2022/07/27 04:08:09;;;;;;;;;;;;;;;24.01;43.72;100153.59;5349215;32;34734;-77
2022/07/27 04:11:12;;;;;;;;;;;;;;;23.65;44.20;100148.19;5358515;32;35014;-77
2022/07/27 04:14:15;;;;;;;;;;;;;;;23.01;45.75;100146.31;5346609;32;35004;-77
2022/07/27 04:17:18;;;;;;;;;;;;;;;23.55;45.09;100149.19;5363357;32;43169;-77
2022/07/27 04:20:40;;;;;;;;;;;;;;;23.82;43.84;100149.19;5345815;32;34973;-78
2022/07/27 04:23:41;;;;;;;;;;;;;;;23.89;43.49;100149.44;5351562;32;35205;-77
2022/07/27 04:26:43;;;;;;;;;;;;;;;24.19;43.01;100150.94;5334364;32;36870;-77
2022/07/27 04:29:45;;;;;;;;;;;;;;;23.90;43.49;100168.09;5332674;32;34579;-77
2022/07/27 04:32:47;;;;;;;;;;;;;;;23.89;43.25;100170.91;5355656;32;34752;-77
2022/07/27 04:35:49;;;;;;;;;;;;;;;24.46;42.12;100164.28;5343359;32;46192;-76
2022/07/27 04:38:51;;;;;;;;;;;;;;;24.95;41.21;100158.47;5359071;32;34294;-77
2022/07/27 04:41:53;;;;;;;;;;;;;;;24.62;41.35;100158.22;5346124;32;34805;-77
2022/07/27 04:44:55;;;;;;;;;;;;;;;24.79;41.04;100161.88;5358685;32;35047;-77
2022/07/27 04:47:57;;;;;;;;;;;;;;;25.14;40.35;100160.13;5361461;32;35424;-76
2022/07/27 04:50:59;;;;;;;;;;;;;;;25.65;39.39;100161.88;5334573;32;34685;-78
2022/07/27 04:54:01;;;;;;;;;;;;;;;26.16;38.41;100154.66;5360107;32;34911;-77
2022/07/27 04:57:03;;;;;;;;;;;;;;;25.77;39.04;100155.22;5344297;32;35566;-77
2022/07/27 05:00:05;;;;;;;;;;;;;;;27.06;36.82;100150.13;5360746;32;34035;-78
2022/07/27 05:03:07;;;;;;;;;;;;;;;28.23;34.38;100161.94;5345803;32;34243;-77
2022/07/27 05:06:09;;;;;;;;;;;;;;;26.59;37.63;100166.16;5346847;32;34353;-77
2022/07/27 05:09:11;;;;;;;;;;;;;;;27.86;35.33;100160.81;5342248;32;36172;-77
2022/07/27 05:12:14;;;;;;;;;;;;;;;29.10;33.13;100163.22;5328630;32;36579;-76
2022/07/27 05:15:16;;;;;;;;;;;;;;;28.01;35.08;100166.28;5357372;32;34890;-77
2022/07/27 05:18:18;;;;;;;;;;;;;;;28.94;33.17;100168.81;5343659;32;44677;-77
2022/07/27 05:21:19;;;;;;;;;;;;;;;28.39;34.40;100167.22;5356759;32;34172;-77
2022/07/27 05:24:21;;;;;;;;;;;;;;;28.37;33.93;100176.56;5340013;32;35314;-77
2022/07/27 05:27:23;;;;;;;;;;;;;;;28.66;33.43;100171.25;5347929;32;34999;-77
2022/07/27 05:30:25;;;;;;;;;;;;;;;29.71;31.12;100173.06;5351548;32;35431;-68
2022/07/27 05:33:27;;;;;;;;;;;;;;;29.23;32.39;100176.13;5346773;32;35112;-69
2022/07/27 05:36:30;;;;;;;;;;;;;;;29.10;31.97;100182.16;5359696;32;34312;-73
2022/07/27 05:39:31;;;;;;;;;;;;;;;28.11;33.17;100179.56;5337076;32;35399;-72
2022/07/27 05:42:34;;;;;;;;;;;;;;;29.20;31.49;100189.19;5370351;32;34301;-73
2022/07/27 05:45:36;;;;;;;;;;;;;;;30.87;28.85;100185.56;5340808;32;34331;-74
2022/07/27 05:48:39;;;;;;;;;;;;;;;30.27;29.59;100184.13;5351114;32;35015;-75
2022/07/27 05:51:42;;;;;;;;;;;;;;;30.77;28.92;100180.47;5325086;32;35206;-71
2022/07/27 05:54:44;;;;;;;;;;;;;;;30.95;28.44;100188.97;5337937;32;34303;-71
2022/07/27 05:57:46;;;;;;;;;;;;;;;27.64;33.99;100205.59;5360125;32;35534;-71
2022/07/27 06:00:48;;;;;;;;;;;;;;;28.63;32.43;100203.22;5339831;32;45724;-74
2022/07/27 06:03:49;;;;;;;;;;;;;;;28.69;32.19;100208.75;5356222;32;34183;-72
2022/07/27 06:10:20;;;;;;;;;;;;;;;30.77;28.50;100206.75;5316610;32;44578;-76
2022/07/27 06:13:22;;;;;;;;;;;;;;;28.91;30.53;100209.72;5355574;32;34366;-74
2022/07/27 06:16:29;;;;;;;;;;;;;;;28.97;30.42;100217.13;5342386;32;33660;-71
2022/07/27 06:19:31;;;;;;;;;;;;;;;28.63;31.30;100222.97;5357939;32;35252;-73
2022/07/27 06:22:48;;;;;;;;;;;;;;;30.24;29.16;100225.19;5345075;32;35440;-84
2022/07/27 06:25:50;;;;;;;;;;;;;;;28.81;30.59;100233.50;5349243;32;44431;-82
2022/07/27 06:28:57;;;;;;;;;;;;;;;29.42;29.62;100237.81;5354196;32;34304;-81
2022/07/27 06:31:59;;;;;;;;;;;;;;;30.06;28.98;100231.00;5342713;32;35709;-78
2022/07/27 06:35:02;;;;;;;;;;;;;;;31.01;27.07;100230.75;5352501;32;34365;-82
2022/07/27 06:38:04;;;;;;;;;;;;;;;31.34;26.17;100225.59;5341722;32;36950;-77
2022/07/27 06:41:06;;;;;;;;;;;;;;;31.16;26.38;100223.34;5360839;32;34313;-74
2022/07/27 06:44:08;;;;;;;;;;;;;;;31.33;26.09;100225.81;5344528;32;35230;-79
2022/07/27 06:47:10;;;;;;;;;;;;;;;30.64;27.01;100229.97;5346105;32;34279;-88
2022/07/27 06:50:12;;;;;;;;;;;;;;;32.22;24.74;100223.13;5335041;32;34411;-86
2022/07/27 06:53:14;;;;;;;;;;;;;;;31.41;26.15;100225.66;5344445;32;36027;-79
2022/07/27 06:56:22;;;;;;;;;;;;;;;29.54;29.05;100230.13;5359160;32;45882;-77
2022/07/27 06:59:24;;;;;;;;;;;;;;;29.96;28.13;100230.47;5347212;32;34620;-78
2022/07/27 07:02:57;;;;;;;;;;;;;;;32.67;24.50;100221.56;5354905;32;34713;-90
2022/07/27 07:05:59;;;;;;;;;;;;;;;30.57;27.28;100220.94;5334547;32;34921;-74
2022/07/27 07:09:01;;;;;;;;;;;;;;;33.03;24.37;100221.16;5347360;32;34017;-76
2022/07/27 07:12:03;;;;;;;;;;;;;;;32.39;25.16;100219.00;5355464;32;34439;-75
2022/07/27 07:15:06;;;;;;;;;;;;;;;33.26;23.73;100217.19;5344916;32;34403;-78
2022/07/27 07:18:09;;;;;;;;;;;;;;;32.54;24.66;100216.94;5358357;32;34104;-80
2022/07/27 07:21:11;;;;;;;;;;;;;;;33.62;23.11;100219.41;5342329;32;34592;-76
2022/07/27 07:24:13;;;;;;;;;;;;;;;34.50;22.02;100206.03;5351007;32;35921;-83
2022/07/27 07:27:18;;;;;;;;;;;;;;;32.80;23.76;100216.13;5327567;32;978454;-76
2022/07/27 07:30:20;;;;;;;;;;;;;;;33.03;23.71;100206.72;5335656;32;43305;-79
2022/07/27 07:33:22;;;;;;;;;;;;;;;35.09;21.08;100184.78;5356217;32;34104;-73
2022/07/27 07:36:24;;;;;;;;;;;;;;;34.14;22.17;100190.31;5345522;32;34256;-76
2022/07/27 07:39:26;;;;;;;;;;;;;;;33.08;23.11;100204.22;5355676;32;34776;-79
2022/07/27 07:42:33;;;;;;;;;;;;;;;33.41;22.47;100202.28;5348130;32;34332;-72
2022/07/27 07:45:36;;;;;;;;;;;;;;;32.51;23.97;100192.03;5354208;32;34331;-79
2022/07/27 07:48:51;;;;;;;;;;;;;;;34.91;21.21;100185.56;5353562;32;44341;-78
2022/07/27 07:51:53;;;;;;;;;;;;;;;34.78;20.66;100175.59;5330028;32;34819;-77
2022/07/27 07:54:55;;;;;;;;;;;;;;;33.87;21.89;100179.47;5344136;32;34563;-74
2022/07/27 07:57:58;;;;;;;;;;;;;;;35.68;20.00;100175.09;5338368;32;35460;-78
2022/07/27 08:01:00;;;;;;;;;;;;;;;34.74;21.10;100177.94;5336939;32;34239;-77
2022/07/27 08:04:02;;;;;;;;;;;;;;;33.04;22.79;100190.19;5341885;32;33252;-77
2022/07/27 08:07:05;;;;;;;;;;;;;;;34.52;20.81;100184.81;5349613;32;33123;-84
2022/07/27 08:10:07;;;;;;;;;;;;;;;33.41;21.46;100188.69;5354239;32;34149;-72
2022/07/27 08:13:10;;;;;;;;;;;;;;;35.53;19.57;100173.59;5344209;32;34114;-71
2022/07/27 08:16:12;;;;;;;;;;;;;;;35.24;20.26;100174.34;5358367;32;34833;-76
2022/07/27 08:19:14;;;;;;;;;;;;;;;33.91;21.75;100174.47;5345504;32;35148;-82
2022/07/27 08:22:16;;;;;;;;;;;;;;;35.23;19.41;100178.12;5354295;32;36834;-83
2022/07/27 08:25:18;;;;;;;;;;;;;;;35.10;19.43;100164.59;5347523;32;45252;-82
2022/07/27 08:28:20;;;;;;;;;;;;;;;35.07;19.75;100173.25;5343685;32;34868;-81
2022/07/27 08:31:22;;;;;;;;;;;;;;;36.04;18.25;100168.78;5356100;32;35430;-77
2022/07/27 08:34:44;;;;;;;;;;;;;;;33.54;20.87;100179.63;5341083;32;35480;-86
2022/07/27 08:37:46;;;;;;;;;;;;;;;33.18;21.08;100174.69;5366329;32;35851;-72
2022/07/27 08:40:48;;;;;;;;;;;;;;;35.83;18.07;100164.62;5339189;32;44412;-72
2022/07/27 08:43:50;;;;;;;;;;;;;;;35.13;18.60;100158.69;5333858;32;34571;-78
2022/07/27 08:46:52;;;;;;;;;;;;;;;36.80;17.04;100156.25;5358789;32;34922;-78
2022/07/27 08:49:55;;;;;;;;;;;;;;;34.25;19.38;100164.22;5327025;32;35602;-79
2022/07/27 08:53:02;;;;;;;;;;;;;;;34.19;19.64;100171.38;5335029;32;35541;-74
2022/07/27 08:56:04;;;;;;;;;;;;;;;35.36;18.44;100156.16;5340016;32;34734;-75
2022/07/27 08:59:06;;;;;;;;;;;;;;;36.12;17.59;100156.69;5363236;32;35165;-75
2022/07/27 09:02:08;;;;;;;;;;;;;;;34.89;18.78;100157.62;5342595;32;35654;-72
2022/07/27 09:05:11;;;;;;;;;;;;;;;33.81;19.97;100153.09;5342597;32;34411;-72
2022/07/27 09:08:14;;;;;;;;;;;;;;;34.74;19.04;100152.53;5356992;32;33531;-74
2022/07/27 09:11:16;;;;;;;;;;;;;;;34.66;19.31;100150.94;5343566;32;34436;-76
2022/07/27 09:14:18;;;;;;;;;;;;;;;36.18;17.68;100150.28;5350571;32;43895;-82
2022/07/27 09:17:24;;;;;;;;;;;;;;;36.74;17.06;100146.25;5343849;32;34452;-71
2022/07/27 09:20:46;;;;;;;;;;;;;;;37.90;15.86;100133.47;5347209;32;34612;-76
2022/07/27 09:23:53;;;;;;;;;;;;;;;37.05;16.46;100140.44;5347938;32;44477;-80
2022/07/27 09:27:02;;;;;;;;;;;;;;;36.54;16.74;100141.13;5345877;32;35625;-80
2022/07/27 09:30:06;;;;;;;;;;;;;;;38.58;15.05;100129.78;5369948;32;34154;-75
2022/07/27 09:33:08;;;;;;;;;;;;;;;37.54;15.98;100130.00;5332412;32;34482;-76
2022/07/27 09:36:10;;;;;;;;;;;;;;;37.11;16.38;100131.25;5354773;32;34267;-80
2022/07/27 09:39:12;;;;;;;;;;;;;;;39.12;14.61;100130.03;5342948;32;36216;-76
2022/07/27 09:42:16;;;;;;;;;;;;;;;38.31;15.05;100121.34;5340593;32;34315;-81
2022/07/27 09:45:38;;;;;;;;;;;;;;;35.87;17.68;100135.75;5352730;32;34364;-79
2022/07/27 09:48:42;;;;;;;;;;;;;;;35.13;18.01;100142.31;5342780;32;34356;-79
2022/07/27 09:51:45;;;;;;;;;;;;;;;37.50;15.87;100125.25;5338707;32;37133;-71
2022/07/27 09:55:04;;;;;;;;;;;;;;;37.29;15.51;100135.78;5345079;32;35553;-75
2022/07/27 09:58:06;;;;;;;;;;;;;;;37.01;15.40;100135.69;5332073;32;34825;-78
2022/07/27 10:01:16;;;;;;;;;;;;;;;37.55;15.06;100128.94;5357337;32;34215;-84
2022/07/27 10:04:19;;;;;;;;;;;;;;;37.60;13.81;100126.28;5352752;32;43237;-83
2022/07/27 10:07:21;;;;;;;;;;;;;;;38.26;13.92;100117.66;5349542;32;34962;-85
2022/07/27 10:10:23;;;;;;;;;;;;;;;40.01;12.51;100120.69;5342953;32;34235;-78
2022/07/27 10:13:25;;;;;;;;;;;;;;;37.89;13.84;100123.59;5355352;32;34436;-83
2022/07/27 10:16:28;;;;;;;;;;;;;;;37.39;14.41;100138.75;5342824;32;37633;-77
2022/07/27 10:19:33;;;;;;;;;;;;;;;37.99;13.43;100121.03;5341492;32;34496;-77
2022/07/27 10:22:48;;;;;;;;;;;;;;;36.80;13.86;100123.41;5351518;32;35405;-77
2022/07/27 10:26:10;;;;;;;;;;;;;;;38.77;12.14;100118.53;5335508;32;45308;-75
2022/07/27 10:29:12;;;;;;;;;;;;;;;41.38;10.32;100096.94;5354904;32;36673;-81
2022/07/27 10:32:22;;;;;;;;;;;;;;;38.81;12.14;100114.19;5356328;32;34811;-79
2022/07/27 10:35:30;;;;;;;;;;;;;;;37.79;12.73;100109.62;5338203;32;46830;-83
2022/07/27 10:38:48;;;;;;;;;;;;;;;38.88;11.85;100118.44;5353194;32;35809;-80
2022/07/27 10:41:51;;;;;;;;;;;;;;;39.92;11.34;100105.72;5349244;32;43236;-79
2022/07/27 10:44:57;;;;;;;;;;;;;;;38.88;11.68;100106.59;5352554;32;34344;-75
2022/07/27 10:47:58;;;;;;;;;;;;;;;37.22;13.05;100112.28;5338172;32;37550;-73
2022/07/27 10:51:00;;;;;;;;;;;;;;;36.84;13.61;100108.13;5324749;32;34521;-77
2022/07/27 10:54:17;;;;;;;;;;;;;;;37.19;13.18;100112.78;5345373;32;36202;-77
2022/07/27 10:57:24;;;;;;;;;;;;;;;37.59;12.61;100113.66;5337343;32;43240;-75
2022/07/27 11:00:45;;;;;;;;;;;;;;;39.17;11.40;100105.41;5358100;32;35018;-77
2022/07/27 11:03:55;;;;;;;;;;;;;;;39.22;11.20;100101.87;5346481;32;44731;-77
2022/07/27 11:06:59;;;;;;;;;;;;;;;37.64;12.91;100089.09;5343154;32;34492;-77
2022/07/27 11:10:21;;;;;;;;;;;;;;;39.88;11.08;100090.84;5358397;32;46913;-77
2022/07/27 11:13:25;;;;;;;;;;;;;;;40.40;10.67;100087.47;5356962;32;35346;-78
2022/07/27 11:16:36;;;;;;;;;;;;;;;39.97;10.67;100086.53;5358726;32;34632;-77
2022/07/27 11:19:57;;;;;;;;;;;;;;;40.30;10.38;100080.78;5339336;32;44623;-77
2022/07/27 11:23:01;;;;;;;;;;;;;;;41.10;9.73;100078.06;5356688;32;35505;-77
2022/07/27 11:26:25;;;;;;;;;;;;;;;42.28;8.97;100063.47;5353197;32;44766;-77
2022/07/27 11:29:31;;;;;;;;;;;;;;;40.91;9.97;100071.34;5339906;32;33554;-77
2022/07/27 11:32:40;;;;;;;;;;;;;;;42.96;8.94;100055.59;5360085;32;34211;-77
2022/07/27 11:35:49;;;;;;;;;;;;;;;40.47;10.76;100057.81;5345161;32;34766;-76
2022/07/27 11:38:52;;;;;;;;;;;;;;;40.66;10.65;100064.56;5341286;32;44928;-76
2022/07/27 11:41:55;;;;;;;;;;;;;;;39.09;11.99;100063.75;5355916;32;34704;-75
2022/07/27 11:45:26;;;;;;;;;;;;;;;39.22;11.57;100063.41;5349455;32;38460;-75
2022/07/27 11:48:28;;;;;;;;;;;;;;;39.10;12.03;100066.28;5358500;32;35580;-74
2022/07/27 11:51:51;;;;;;;;;;;;;;;39.62;11.46;100071.34;5329556;32;44956;-74
2022/07/27 11:54:53;;;;;;;;;;;;;;;41.61;9.91;100051.50;5344275;32;35318;-74
2022/07/27 11:58:01;;;;;;;;;;;;;;;41.36;9.94;100057.78;5356757;32;34242;-74
2022/07/27 12:01:03;;;;;;;;;;;;;;;41.63;9.57;100051.22;5341778;32;33974;-87
2022/07/27 12:04:07;;;;;;;;;;;;;;;40.44;10.47;100045.38;5357234;32;34206;-78
2022/07/27 12:07:12;;;;;;;;;;;;;;;41.57;9.99;100038.53;5344563;32;35387;-82
2022/07/27 12:10:16;;;;;;;;;;;;;;;42.16;9.63;100043.59;5341224;32;36030;-80
2022/07/27 12:13:19;;;;;;;;;;;;;;;40.26;10.93;100040.31;5340037;32;46173;-89
2022/07/27 12:16:21;;;;;;;;;;;;;;;40.20;10.72;100036.69;5341991;32;35284;-82
2022/07/27 12:19:23;;;;;;;;;;;;;;;39.71;11.28;100041.44;5357639;32;34319;-81
2022/07/27 12:22:30;;;;;;;;;;;;;;;38.01;12.58;100024.78;5346729;32;34556;-78
2022/07/27 12:25:33;;;;;;;;;;;;;;;38.39;12.38;100024.88;5360821;32;34413;-80
2022/07/27 12:28:35;;;;;;;;;;;;;;;38.32;12.64;100031.59;5345800;32;35153;-77
2022/07/27 12:31:37;;;;;;;;;;;;;;;38.43;12.61;100020.53;5351768;32;34721;-82
2022/07/27 12:34:39;;;;;;;;;;;;;;;36.68;13.85;100029.47;5357253;32;34165;-82
2022/07/27 12:37:42;;;;;;;;;;;;;;;36.90;13.45;100030.53;5343781;32;34196;-80
2022/07/27 12:40:47;;;;;;;;;;;;;;;35.34;15.18;100020.81;5358772;32;35460;-81
2022/07/27 12:44:04;;;;;;;;;;;;;;;36.26;14.86;100018.62;5348065;32;44366;-83
2022/07/27 12:50:28;;;;;;;;;;;;;;;36.50;14.11;100019.50;5332171;32;35662;-77
2022/07/27 12:53:31;;;;;;;;;;;;;;;34.97;15.29;100010.78;5347859;32;34609;-75
2022/07/27 12:56:33;;;;;;;;;;;;;;;34.40;15.70;100014.72;5358033;32;32596;-78
2022/07/27 12:59:35;;;;;;;;;;;;;;;33.39;17.25;100011.00;5332901;32;35780;-86
2022/07/27 13:02:38;;;;;;;;;;;;;;;34.28;16.74;100003.69;5361325;32;34820;-73
2022/07/27 13:05:40;;;;;;;;;;;;;;;33.57;17.44;100012.19;5344403;32;34655;-82
2022/07/27 13:08:42;;;;;;;;;;;;;;;32.72;18.12;100015.00;5353737;32;37169;-75
2022/07/27 13:11:44;;;;;;;;;;;;;;;33.88;17.09;100003.16;5356565;32;34870;-73
2022/07/27 13:14:49;;;;;;;;;;;;;;;33.73;17.04;99989.84;5343888;32;44473;-73
2022/07/27 13:17:51;;;;;;;;;;;;;;;33.78;17.30;99990.00;5358889;32;34317;-80
2022/07/27 13:20:53;;;;;;;;;;;;;;;34.68;16.32;99987.78;5343331;32;34474;-76
2022/07/27 13:23:55;;;;;;;;;;;;;;;34.45;16.43;99985.69;5355853;32;34685;-78
2022/07/27 13:26:57;;;;;;;;;;;;;;;34.31;16.72;99978.69;5341078;32;34743;-74
2022/07/27 13:29:59;;;;;;;;;;;;;;;34.42;16.49;99990.78;5348172;32;32781;-81
2022/07/27 13:33:01;;;;;;;;;;;;;;;33.55;17.15;99987.03;5357453;32;34363;-78
2022/07/27 13:36:06;;;;;;;;;;;;;;;35.28;15.45;99989.78;5343464;32;33811;-78
2022/07/27 13:39:08;;;;;;;;;;;;;;;34.00;16.75;99981.50;5355688;32;34204;-69
2022/07/27 13:42:10;;;;;;;;;;;;;;;33.76;16.59;99974.97;5338815;32;34082;-70
2022/07/27 13:45:12;;;;;;;;;;;;;;;35.74;14.68;99964.53;5358551;32;34315;-84
2022/07/27 13:48:14;;;;;;;;;;;;;;;35.44;15.27;99967.34;5342038;32;34323;-73
2022/07/27 13:51:16;;;;;;;;;;;;;;;34.79;15.72;99963.53;5326119;32;34373;-78
2022/07/27 13:54:18;;;;;;;;;;;;;;;35.69;15.10;99958.13;5355388;32;44819;-75
2022/07/27 13:57:20;;;;;;;;;;;;;;;35.44;15.32;99955.56;5347092;32;35626;-72
2022/07/27 14:00:22;;;;;;;;;;;;;;;35.03;15.66;99946.22;5358596;32;34097;-71
2022/07/27 14:03:24;;;;;;;;;;;;;;;35.26;15.54;99948.22;5341032;32;34253;-74
2022/07/27 14:06:28;;;;;;;;;;;;;;;33.86;16.42;99959.75;5358213;32;32836;-72
2022/07/27 14:12:51;;;;;;;;;;;;;;;33.87;16.33;99955.97;5343328;32;48548;-69
2022/07/27 14:16:00;;;;;;;;;;;;;;;34.82;15.50;99942.06;5358497;32;34411;-72
2022/07/27 14:19:02;;;;;;;;;;;;;;;34.77;15.77;99935.59;5340695;32;34617;-71
2022/07/27 14:22:04;;;;;;;;;;;;;;;34.92;15.74;99942.38;5355791;32;34555;-78
2022/07/27 14:25:06;;;;;;;;;;;;;;;33.32;16.86;99942.09;5343063;32;35244;-76
2022/07/27 14:28:08;;;;;;;;;;;;;;;35.03;15.33;99926.28;5341408;32;34750;-80
2022/07/27 14:31:11;;;;;;;;;;;;;;;34.07;16.22;99923.13;5350726;32;35611;-70
2022/07/27 14:34:15;;;;;;;;;;;;;;;33.22;17.22;99925.37;5332202;32;34402;-70
2022/07/27 14:37:17;;;;;;;;;;;;;;;33.62;16.92;99923.28;5353393;32;35906;-70
2022/07/27 14:40:20;;;;;;;;;;;;;;;33.78;16.96;99921.88;5331298;32;44544;-75
2022/07/27 14:43:21;;;;;;;;;;;;;;;34.40;16.20;99922.78;5352153;32;35540;-75
2022/07/27 14:46:23;;;;;;;;;;;;;;;34.15;16.71;99919.28;5342426;32;35407;-76
2022/07/27 14:49:26;;;;;;;;;;;;;;;34.36;16.61;99916.09;5333117;32;35504;-76
2022/07/27 14:52:28;;;;;;;;;;;;;;;34.70;16.43;99917.41;5337485;32;35003;-71
2022/07/27 14:55:30;;;;;;;;;;;;;;;34.38;16.59;99913.97;5339512;32;34383;-71
2022/07/27 14:58:32;;;;;;;;;;;;;;;33.60;17.68;99916.38;5359251;32;34806;-71
2022/07/27 15:01:34;;;;;;;;;;;;;;;34.78;16.34;99913.56;5355449;32;34235;-70
2022/07/27 15:04:36;;;;;;;;;;;;;;;34.04;16.91;99922.75;5367904;32;34993;-70
2022/07/27 15:07:38;;;;;;;;;;;;;;;33.82;16.99;99923.13;5354768;32;34551;-75
2022/07/27 15:10:42;;;;;;;;;;;;;;;35.08;16.01;99918.22;5342921;32;34257;-76
2022/07/27 15:13:44;;;;;;;;;;;;;;;34.93;15.79;99911.28;5359923;32;34827;-76
2022/07/27 15:16:46;;;;;;;;;;;;;;;32.70;17.96;99905.53;5343870;32;35029;-76
2022/07/27 15:19:48;;;;;;;;;;;;;;;33.78;17.11;99905.53;5360996;32;44747;-71
2022/07/27 15:22:50;;;;;;;;;;;;;;;33.76;17.86;99902.22;5327658;32;34998;-71
2022/07/27 15:25:52;;;;;;;;;;;;;;;34.32;16.90;99903.97;5360969;32;37138;-76
2022/07/27 15:28:54;;;;;;;;;;;;;;;34.06;16.57;99896.91;5332007;32;35502;-77
2022/07/27 15:31:56;;;;;;;;;;;;;;;33.73;17.40;99899.06;5334690;32;35964;-76
2022/07/27 15:34:58;;;;;;;;;;;;;;;34.28;16.68;99894.59;5362449;32;34781;-75
2022/07/27 15:38:00;;;;;;;;;;;;;;;34.32;16.82;99890.34;5341476;32;34976;-75
2022/07/27 15:41:02;;;;;;;;;;;;;;;34.41;16.62;99899.06;5357521;32;35194;-70
2022/07/27 15:44:05;;;;;;;;;;;;;;;33.72;17.46;99903.69;5342928;32;34989;-71
2022/07/27 15:47:07;;;;;;;;;;;;;;;33.15;18.21;99902.81;5355646;32;37143;-70
2022/07/27 15:50:09;;;;;;;;;;;;;;;34.30;16.81;99897.94;5322078;32;35651;-70
2022/07/27 15:53:12;;;;;;;;;;;;;;;33.67;17.32;99898.91;5340744;32;34936;-72
2022/07/27 15:56:14;;;;;;;;;;;;;;;33.98;17.06;99899.09;5357446;32;35004;-76